Time;durP1;ratioP1;P1;durP2;ratioP2;P2;SDS_P1;SDS_P2;PMS_P1;PMS_P2;Temp;Humidity;BMP_temperature;BMP_pressure;BME280_temperature;BME280_humidity;BME280_pressure;Samples;Min_cycle;Max_cycle;Signal;HPM_P1;HPM_P2
2023/07/31 00:02:02;;;;;;;1.88;1.73;;;;;;;13.75;100.00;100801.16;5045083;28;20427;-86
2023/07/31 00:04:27;;;;;;;1.98;1.80;;;;;;;13.75;100.00;100799.28;5031476;28;20100;-86
2023/07/31 00:06:56;;;;;;;1.80;1.70;;;;;;;13.75;100.00;100799.28;5049848;28;20111;-86
2023/07/31 00:09:21;;;;;;;2.58;1.80;;;;;;;13.74;100.00;100808.47;5043796;28;20556;-88
2023/07/31 00:11:47;;;;;;;1.90;1.70;;;;;;;13.73;100.00;100804.09;5051426;28;20052;-88
2023/07/31 00:14:12;;;;;;;1.75;1.52;;;;;;;13.73;100.00;100795.97;5050213;28;20032;-87
2023/07/31 00:16:37;;;;;;;1.58;1.48;;;;;;;13.76;100.00;100784.72;5043367;28;20021;-88
2023/07/31 00:19:03;;;;;;;1.70;1.60;;;;;;;13.75;100.00;100785.78;5039051;28;20039;-88
2023/07/31 00:21:29;;;;;;;2.50;1.58;;;;;;;13.79;100.00;100789.66;5053474;28;20029;-87
2023/07/31 00:23:54;;;;;;;1.85;1.67;;;;;;;13.82;100.00;100795.69;5049273;28;20032;-88
2023/07/31 00:26:19;;;;;;;1.95;1.73;;;;;;;13.76;100.00;100789.28;5047206;28;20025;-89
2023/07/31 00:28:45;;;;;;;1.73;1.63;;;;;;;13.75;100.00;100785.78;5047453;28;20069;-89
2023/07/31 00:31:10;;;;;;;2.20;1.70;;;;;;;13.78;100.00;100787.19;5037108;28;20037;-88
2023/07/31 00:33:36;;;;;;;2.33;2.10;;;;;;;13.80;100.00;100785.91;5053093;28;20017;-88
2023/07/31 00:36:02;;;;;;;1.60;1.50;;;;;;;13.85;100.00;100773.63;5060574;28;20025;-88
2023/07/31 00:38:27;;;;;;;2.03;1.83;;;;;;;13.91;100.00;100775.44;5045379;28;20031;-89
2023/07/31 00:40:52;;;;;;;1.75;1.65;;;;;;;13.87;100.00;100779.63;5046090;28;20030;-89
2023/07/31 00:43:18;;;;;;;1.80;1.70;;;;;;;13.87;100.00;100774.22;5046607;28;20047;-89
2023/07/31 00:45:44;;;;;;;1.58;1.48;;;;;;;13.96;100.00;100767.47;5042735;28;20389;-88
2023/07/31 00:48:09;;;;;;;1.73;1.60;;;;;;;13.95;100.00;100760.41;5021974;28;20057;-89
2023/07/31 00:50:34;;;;;;;1.77;1.67;;;;;;;13.95;100.00;100755.81;5051262;28;20021;-89
2023/07/31 00:53:02;;;;;;;1.73;1.63;;;;;;;13.95;100.00;100755.81;5050286;28;20055;-89
2023/07/31 00:55:28;;;;;;;1.90;1.63;;;;;;;14.00;100.00;100752.44;5041533;28;20025;-89
2023/07/31 00:57:55;;;;;;;1.70;1.60;;;;;;;14.02;100.00;100747.66;5036850;28;20037;-88
2023/07/31 01:00:21;;;;;;;1.70;1.60;;;;;;;13.97;100.00;100752.88;5020312;28;20180;-88
2023/07/31 01:02:49;;;;;;;2.42;1.65;;;;;;;13.96;100.00;100751.22;5047632;28;20075;-88
2023/07/31 01:05:14;;;;;;;1.80;1.70;;;;;;;14.00;100.00;100741.63;5052308;28;20009;-87
2023/07/31 01:07:52;;;;;;;1.48;1.38;;;;;;;14.09;100.00;100737.59;5051380;28;20032;-87
2023/07/31 01:10:30;;;;;;;1.55;1.45;;;;;;;14.13;100.00;100745.25;5036575;28;20037;-88
2023/07/31 01:12:56;;;;;;;1.55;1.45;;;;;;;14.12;100.00;100727.38;5023759;28;20022;-88
2023/07/31 01:15:30;;;;;;;1.58;1.48;;;;;;;14.13;100.00;100720.88;5030728;28;20028;-87
2023/07/31 01:17:56;;;;;;;1.45;1.35;;;;;;;14.12;100.00;100722.78;5022545;28;20025;-87
2023/07/31 01:20:22;;;;;;;2.50;1.55;;;;;;;14.17;100.00;100724.81;5030682;28;20043;-87
2023/07/31 01:23:22;;;;;;;3.53;2.28;;;;;;;14.23;100.00;100723.91;5027667;28;20038;-86
2023/07/31 01:26:13;;;;;;;4.30;2.95;;;;;;;14.29;100.00;100723.03;5023209;28;20061;-85
2023/07/31 01:28:44;;;;;;;4.63;3.13;;;;;;;14.36;100.00;100721.06;5021737;28;20033;-86
2023/07/31 01:31:17;;;;;;;6.57;3.72;;;;;;;14.36;100.00;100729.19;5019089;28;20034;-86
2023/07/31 01:33:42;;;;;;;8.00;4.35;;;;;;;14.37;100.00;100724.59;5025862;28;20089;-86
2023/07/31 01:36:15;;;;;;;5.78;4.20;;;;;;;14.47;100.00;100724.09;5031529;28;20492;-85
2023/07/31 01:38:41;;;;;;;10.05;5.25;;;;;;;14.42;100.00;100710.38;5031265;28;20388;-85
2023/07/31 01:41:06;;;;;;;12.00;5.70;;;;;;;14.39;100.00;100712.47;5030450;28;20032;-85
2023/07/31 01:43:31;;;;;;;13.25;6.70;;;;;;;14.52;100.00;100719.63;5029931;28;20075;-85
2023/07/31 01:46:01;;;;;;;14.32;7.72;;;;;;;14.70;100.00;100718.81;5019965;28;20025;-85
2023/07/31 01:48:26;;;;;;;15.30;7.63;;;;;;;14.75;100.00;100720.00;5026705;28;20046;-85
2023/07/31 01:50:54;;;;;;;17.02;8.90;;;;;;;14.78;100.00;100716.84;5021393;28;20076;-85
2023/07/31 01:53:19;;;;;;;18.17;8.45;;;;;;;14.90;100.00;100715.00;5028963;28;20049;-84
2023/07/31 01:55:45;;;;;;;21.45;9.90;;;;;;;14.90;100.00;100722.34;5033022;28;20553;-84
2023/07/31 01:58:10;;;;;;;19.33;9.45;;;;;;;15.00;100.00;100709.84;5030773;28;20034;-85
2023/07/31 02:00:35;;;;;;;16.15;9.20;;;;;;;15.08;100.00;100699.75;5037678;28;20781;-84
2023/07/31 02:03:01;;;;;;;18.65;9.18;;;;;;;15.13;100.00;100694.47;5041990;28;20056;-84
2023/07/31 02:05:26;;;;;;;16.77;9.18;;;;;;;15.19;100.00;100698.97;5056411;28;20180;-84
2023/07/31 02:07:51;;;;;;;13.85;8.55;;;;;;;15.22;100.00;100700.41;5059200;28;20492;-84
2023/07/31 02:10:17;;;;;;;17.27;9.30;;;;;;;15.15;100.00;100712.16;5055072;28;20439;-84
2023/07/31 02:12:42;;;;;;;19.90;8.88;;;;;;;15.19;100.00;100700.84;5048317;28;20035;-84
2023/07/31 02:15:08;;;;;;;17.23;9.05;;;;;;;15.15;100.00;100692.38;5041511;28;20025;-84
2023/07/31 02:17:33;;;;;;;17.02;9.27;;;;;;;15.14;100.00;100680.69;5048121;28;20044;-84
2023/07/31 02:19:59;;;;;;;17.38;8.70;;;;;;;15.20;100.00;100684.34;5054809;28;20520;-85
2023/07/31 02:22:25;;;;;;;18.08;8.77;;;;;;;15.12;100.00;100684.69;5053110;28;20566;-83
2023/07/31 02:24:50;;;;;;;14.27;8.38;;;;;;;15.17;100.00;100679.41;5051956;28;20029;-84
2023/07/31 02:27:15;;;;;;;18.75;8.68;;;;;;;15.18;100.00;100678.31;5052998;28;20036;-84
2023/07/31 02:29:41;;;;;;;16.80;8.30;;;;;;;15.20;100.00;100684.34;5051385;28;20071;-84
2023/07/31 02:32:06;;;;;;;18.70;8.30;;;;;;;15.22;100.00;100686.84;5043576;28;20128;-84
2023/07/31 02:34:31;;;;;;;18.48;8.18;;;;;;;15.30;100.00;100684.63;5040375;28;20028;-84
2023/07/31 02:36:57;;;;;;;18.27;7.63;;;;;;;15.24;100.00;100669.28;5048228;28;20033;-85
2023/07/31 02:39:22;;;;;;;16.00;7.65;;;;;;;15.16;100.00;100673.13;5041060;28;20021;-82
2023/07/31 02:41:48;;;;;;;15.60;8.25;;;;;;;15.25;100.00;100667.41;5047859;28;20033;-83
2023/07/31 02:44:14;;;;;;;15.30;7.28;;;;;;;15.25;100.00;100661.97;5042481;28;20030;-83
2023/07/31 02:46:39;;;;;;;16.75;7.18;;;;;;;15.26;100.00;100671.75;5047172;28;20511;-83
2023/07/31 02:49:05;;;;;;;11.40;6.50;;;;;;;15.35;100.00;100667.63;5054601;28;20115;-83
2023/07/31 02:51:30;;;;;;;14.73;6.88;;;;;;;15.30;100.00;100654.78;5043015;28;20027;-84
2023/07/31 02:53:56;;;;;;;11.95;6.30;;;;;;;15.29;100.00;100663.97;5050731;28;20437;-84
2023/07/31 02:56:21;;;;;;;13.23;6.38;;;;;;;15.26;100.00;100660.91;5045210;28;20033;-84
2023/07/31 02:58:47;;;;;;;14.75;6.78;;;;;;;15.23;100.00;100654.06;5051463;28;20029;-84
2023/07/31 03:01:12;;;;;;;11.18;6.47;;;;;;;15.27;100.00;100659.81;5048001;28;20038;-85
2023/07/31 03:03:37;;;;;;;11.68;5.97;;;;;;;15.35;100.00;100667.63;5051548;28;20475;-84
2023/07/31 03:06:03;;;;;;;12.13;5.85;;;;;;;15.33;100.00;100656.19;5048314;22;20046;-84
2023/07/31 03:08:28;;;;;;;11.88;6.10;;;;;;;15.28;100.00;100661.47;5042243;28;20552;-84
2023/07/31 03:10:53;;;;;;;10.63;5.80;;;;;;;15.27;100.00;100652.53;5045357;28;20033;-85
2023/07/31 03:13:19;;;;;;;12.20;6.32;;;;;;;15.33;100.00;100650.78;5051302;28;20033;-84
2023/07/31 03:15:44;;;;;;;10.40;5.50;;;;;;;15.37;100.00;100659.25;5050090;28;20116;-83
2023/07/31 03:18:10;;;;;;;14.65;5.70;;;;;;;15.30;100.00;100665.63;5042013;28;20040;-84
2023/07/31 03:20:36;;;;;;;14.07;5.70;;;;;;;15.27;100.00;100663.38;5051583;28;20070;-85
2023/07/31 03:23:01;;;;;;;16.67;5.80;;;;;;;15.32;100.00;100665.38;5052960;28;20025;-84
2023/07/31 03:25:26;;;;;;;15.18;5.80;;;;;;;15.32;100.00;100659.97;5046980;28;20026;-84
2023/07/31 03:27:52;;;;;;;12.95;5.68;;;;;;;15.31;100.00;100659.16;5046556;28;20021;-84
2023/07/31 03:30:17;;;;;;;10.15;5.65;;;;;;;15.28;100.00;100662.31;5044756;28;20752;-84
2023/07/31 03:32:43;;;;;;;13.85;5.80;;;;;;;15.33;100.00;100660.81;5033429;28;20033;-83
2023/07/31 03:35:08;;;;;;;12.18;5.85;;;;;;;15.26;100.00;100660.91;5044188;28;20381;-85
2023/07/31 03:37:34;;;;;;;10.73;5.45;;;;;;;15.27;100.00;100666.09;5033690;28;20033;-85
2023/07/31 03:39:59;;;;;;;14.30;5.55;;;;;;;15.25;100.00;100672.81;5040585;28;20032;-84
2023/07/31 03:42:27;;;;;;;15.10;5.82;;;;;;;15.17;100.00;100671.28;5041093;28;20033;-85
2023/07/31 03:44:53;;;;;;;11.80;5.20;;;;;;;15.13;100.00;100670.06;5042555;28;20028;-85
2023/07/31 03:47:18;;;;;;;13.05;5.25;;;;;;;15.20;100.00;100676.22;5039747;28;20037;-86
2023/07/31 03:49:44;;;;;;;13.13;5.05;;;;;;;15.20;100.00;100665.34;5045869;28;20047;-85
2023/07/31 03:52:09;;;;;;;14.35;4.80;;;;;;;15.25;100.00;100660.06;5041134;28;20555;-84
2023/07/31 03:54:34;;;;;;;16.10;5.97;;;;;;;15.24;99.25;100671.97;5040465;28;20026;-84
2023/07/31 03:57:00;;;;;;;13.10;5.03;;;;;;;15.22;99.90;100665.97;5048869;28;20029;-84
2023/07/31 03:59:26;;;;;;;11.32;5.13;;;;;;;15.22;99.36;100670.56;5042336;28;20033;-85
2023/07/31 04:01:51;;;;;;;10.52;5.22;;;;;;;15.16;99.63;100664.19;5051019;28;20468;-84
2023/07/31 04:04:17;;;;;;;15.23;5.00;;;;;;;15.09;100.00;100666.16;5050361;28;20021;-85
2023/07/31 04:06:42;;;;;;;12.73;4.63;;;;;;;15.15;99.84;100666.06;5051267;28;20037;-81
2023/07/31 04:09:07;;;;;;;13.30;4.70;;;;;;;15.06;99.64;100661.19;5043949;28;20480;-89
2023/07/31 04:11:33;;;;;;;12.68;4.32;;;;;;;15.16;98.60;100651.44;5050178;28;20024;-89
2023/07/31 04:13:59;;;;;;;12.60;5.15;;;;;;;15.10;98.41;100668.63;5048079;28;20079;-86
2023/07/31 04:16:24;;;;;;;13.23;4.90;;;;;;;15.04;99.43;100660.59;5071551;28;20020;-84
2023/07/31 04:18:50;;;;;;;10.43;4.85;;;;;;;15.08;98.29;100664.50;5060194;28;20029;-87
2023/07/31 04:21:15;;;;;;;10.85;4.65;;;;;;;15.13;98.23;100662.75;5058620;28;20033;-85
2023/07/31 04:23:40;;;;;;;14.25;4.88;;;;;;;14.98;98.71;100667.78;5075959;28;20047;-84
2023/07/31 04:26:06;;;;;;;16.30;5.20;;;;;;;14.99;98.84;100661.31;5050931;28;20093;-86
2023/07/31 04:28:32;;;;;;;14.80;4.78;;;;;;;15.09;98.28;100668.88;5035479;28;20037;-87
2023/07/31 04:30:57;;;;;;;12.43;5.45;;;;;;;15.00;98.59;100658.34;5044534;28;20025;-86
2023/07/31 04:33:23;;;;;;;11.90;4.80;;;;;;;15.12;97.78;100666.53;5051939;28;20029;-87
2023/07/31 04:35:52;;;;;;;11.70;4.80;;;;;;;15.18;96.62;100662.06;5046635;28;20029;-87
2023/07/31 04:38:18;;;;;;;13.88;4.93;;;;;;;15.19;96.74;100661.00;5053993;28;20025;-86
2023/07/31 04:40:44;;;;;;;11.52;4.80;;;;;;;15.15;96.97;100660.63;5052566;28;20401;-86
2023/07/31 04:43:09;;;;;;;11.18;4.55;;;;;;;15.18;96.75;100653.91;5053480;28;20047;-86
2023/07/31 04:45:36;;;;;;;9.95;4.60;;;;;;;15.21;96.17;100653.47;5057957;28;20021;-86
2023/07/31 04:48:04;;;;;;;11.52;4.50;;;;;;;15.31;95.46;100652.88;5056100;28;20031;-87
2023/07/31 04:50:30;;;;;;;14.57;5.10;;;;;;;15.30;95.18;100649.38;5037750;28;20099;-86
2023/07/31 04:52:58;;;;;;;11.25;4.88;;;;;;;15.29;94.97;100638.72;5052011;28;20481;-86
2023/07/31 04:55:23;;;;;;;11.57;4.63;;;;;;;15.36;94.27;100638.63;5046063;28;20716;-86
2023/07/31 04:57:51;;;;;;;11.30;4.35;;;;;;;15.41;93.66;100641.47;5045367;28;20465;-87
2023/07/31 05:00:17;;;;;;;13.65;4.82;;;;;;;15.44;93.51;100641.00;5034597;28;20474;-86
2023/07/31 05:02:42;;;;;;;16.33;5.53;;;;;;;15.44;93.83;100638.28;5042134;28;20056;-86
2023/07/31 05:05:09;;;;;;;11.68;4.50;;;;;;;15.35;93.92;100640.50;5047425;28;20424;-86
2023/07/31 05:07:35;;;;;;;11.13;5.00;;;;;;;15.37;93.83;100635.69;5051456;28;20068;-86
2023/07/31 05:10:00;;;;;;;15.48;5.28;;;;;;;15.39;93.81;100638.16;5048464;28;20035;-86
2023/07/31 05:12:26;;;;;;;12.27;4.53;;;;;;;15.44;92.90;100625.53;5042559;28;20036;-87
2023/07/31 05:14:51;;;;;;;12.57;4.53;;;;;;;15.33;93.77;100630.97;5059935;28;20023;-85
2023/07/31 05:17:17;;;;;;;10.85;5.00;;;;;;;15.37;93.63;100629.41;5051767;28;20079;-86
2023/07/31 05:19:42;;;;;;;9.98;4.10;;;;;;;15.46;93.11;100619.88;5048183;28;20029;-87
2023/07/31 05:22:07;;;;;;;11.50;4.63;;;;;;;15.48;92.76;100625.91;5043742;28;20643;-84
2023/07/31 05:24:33;;;;;;;11.48;4.65;;;;;;;15.52;92.91;100626.25;5046996;28;20050;-86
2023/07/31 05:26:58;;;;;;;12.80;4.78;;;;;;;15.52;92.91;100621.66;5052698;28;20039;-85
2023/07/31 05:29:24;;;;;;;11.10;4.40;;;;;;;15.58;92.25;100623.41;5050218;28;20025;-86
2023/07/31 05:31:49;;;;;;;13.55;4.30;;;;;;;15.57;92.63;100623.66;5057346;28;20033;-87
2023/07/31 05:34:15;;;;;;;10.45;4.38;;;;;;;15.57;93.01;100618.25;5040247;28;20411;-86
2023/07/31 05:36:40;;;;;;;12.95;4.40;;;;;;;15.59;92.43;100606.09;5044471;28;20105;-84
2023/07/31 05:39:06;;;;;;;12.98;4.30;;;;;;;15.66;92.17;100613.28;5046516;28;20091;-85
2023/07/31 05:41:35;;;;;;;12.00;4.57;;;;;;;15.69;92.09;100613.63;5051029;28;20036;-84
2023/07/31 05:44:00;;;;;;;9.90;4.10;;;;;;;15.71;91.78;100595.22;5049951;28;20040;-85
2023/07/31 05:46:26;;;;;;;9.57;4.10;;;;;;;15.71;92.13;100597.09;5042224;28;20037;-84
2023/07/31 05:48:51;;;;;;;10.27;4.60;;;;;;;15.87;91.95;100593.72;5051821;28;20029;-85
2023/07/31 05:51:16;;;;;;;9.18;4.28;;;;;;;15.94;91.35;100595.44;5050922;28;20029;-86
2023/07/31 05:53:42;;;;;;;10.40;4.30;;;;;;;15.89;91.79;100593.47;5048304;28;20029;-85
2023/07/31 05:56:07;;;;;;;13.52;4.80;;;;;;;16.00;91.87;100594.50;5056867;28;20048;-84
2023/07/31 05:58:32;;;;;;;10.38;4.03;;;;;;;16.03;91.96;100596.75;5060385;28;20032;-86
2023/07/31 06:00:58;;;;;;;12.25;4.18;;;;;;;15.88;92.54;100606.22;5055926;28;20040;-84
2023/07/31 06:03:23;;;;;;;10.40;4.53;;;;;;;15.83;94.01;100606.06;5060756;28;20045;-86
2023/07/31 06:05:49;;;;;;;10.45;4.00;;;;;;;15.82;94.42;100598.16;5043445;28;20045;-83
2023/07/31 06:08:14;;;;;;;9.60;3.92;;;;;;;15.89;94.61;100597.00;5047206;28;20535;-79
2023/07/31 06:10:39;;;;;;;8.60;3.85;;;;;;;15.84;95.56;100596.88;5059459;28;20017;-85
2023/07/31 06:13:05;;;;;;;9.65;3.88;;;;;;;15.72;96.58;100601.47;5046937;28;20032;-85
2023/07/31 06:15:31;;;;;;;9.60;4.20;;;;;;;15.64;97.76;100596.41;5056055;28;20021;-85
2023/07/31 06:17:57;;;;;;;9.30;4.00;;;;;;;15.58;98.51;100604.44;5050407;28;20039;-84
2023/07/31 06:20:22;;;;;;;9.88;3.85;;;;;;;15.51;99.94;100595.59;5044888;28;20132;-84
2023/07/31 06:22:48;;;;;;;9.82;3.63;;;;;;;15.34;100.00;100591.94;5044955;28;20487;-85
2023/07/31 06:25:13;;;;;;;12.73;4.50;;;;;;;15.27;100.00;100592.03;5053235;28;22016;-88
2023/07/31 06:27:39;;;;;;;7.45;4.32;;;;;;;15.21;100.00;100582.13;5063065;28;20478;-85
2023/07/31 06:30:05;;;;;;;9.02;3.85;;;;;;;15.13;100.00;100577.91;5057664;28;20131;-86
2023/07/31 06:32:30;;;;;;;7.50;3.80;;;;;;;15.30;100.00;100581.56;5056865;28;20053;-86
2023/07/31 06:34:56;;;;;;;10.30;4.00;;;;;;;15.39;100.00;100581.19;5052800;28;20039;-88
2023/07/31 06:37:21;;;;;;;8.68;4.40;;;;;;;15.42;100.00;100586.16;5062749;28;20075;-87
2023/07/31 06:39:46;;;;;;;8.27;4.10;;;;;;;15.41;100.00;100576.34;5069271;28;20051;-88
2023/07/31 06:42:12;;;;;;;8.70;4.20;;;;;;;15.40;100.00;100572.84;5065030;28;20068;-87
2023/07/31 06:44:37;;;;;;;8.98;3.97;;;;;;;15.43;100.00;100571.53;5058601;28;20035;-88
2023/07/31 06:47:03;;;;;;;10.90;4.97;;;;;;;15.41;100.00;100568.22;5053675;28;20133;-88
2023/07/31 06:49:28;;;;;;;10.30;4.30;;;;;;;15.48;100.00;100566.22;5055626;28;20052;-88
2023/07/31 06:51:54;;;;;;;9.23;4.20;;;;;;;15.52;100.00;100556.56;5049422;28;20071;-87
2023/07/31 06:54:19;;;;;;;9.38;4.28;;;;;;;15.50;100.00;100564.09;5055425;28;20029;-87
2023/07/31 06:56:44;;;;;;;8.40;4.35;;;;;;;15.45;100.00;100553.94;5074804;28;20009;-86
2023/07/31 06:59:10;;;;;;;8.25;4.20;;;;;;;15.51;100.00;100559.50;5076515;28;20043;-87
2023/07/31 07:01:36;;;;;;;6.97;3.88;;;;;;;15.51;100.00;100563.03;5064848;28;20102;-86
2023/07/31 07:04:01;;;;;;;6.97;4.20;;;;;;;15.48;100.00;100558.09;5043948;28;20056;-85
2023/07/31 07:06:27;;;;;;;4.82;3.63;;;;;;;15.50;100.00;100557.84;5051536;28;20044;-85
2023/07/31 07:08:53;;;;;;;5.53;3.40;;;;;;;15.61;100.00;100548.88;5052695;28;20028;-85
2023/07/31 07:11:18;;;;;;;4.50;3.10;;;;;;;15.73;100.00;100541.53;5046070;28;20436;-88
2023/07/31 07:13:44;;;;;;;7.20;3.38;;;;;;;15.75;100.00;100544.00;5050125;28;20079;-89
2023/07/31 07:16:10;;;;;;;4.85;3.25;;;;;;;15.79;100.00;100537.03;5050887;28;20069;-89
2023/07/31 07:18:35;;;;;;;5.15;3.42;;;;;;;15.77;100.00;100533.72;5045367;28;20074;-82
2023/07/31 07:21:02;;;;;;;4.18;2.80;;;;;;;15.74;100.00;100532.34;5042819;28;20041;-81
2023/07/31 07:23:27;;;;;;;3.92;3.00;;;;;;;15.78;100.00;100529.97;5055448;28;20083;-84
2023/07/31 07:25:53;;;;;;;5.57;3.30;;;;;;;15.72;100.00;100529.03;5042062;28;20029;-82
2023/07/31 07:28:18;;;;;;;3.97;3.08;;;;;;;15.81;100.00;100515.91;5045138;28;20021;-81
2023/07/31 07:30:51;;;;;;;4.38;3.00;;;;;;;15.70;100.00;100524.91;5043452;28;20040;-83
2023/07/31 07:33:16;;;;;;;3.30;2.50;;;;;;;15.76;100.00;100522.06;5043494;28;20060;-83
2023/07/31 07:35:45;;;;;;;3.75;2.90;;;;;;;15.82;100.00;100528.41;5046673;28;20017;-83
2023/07/31 07:38:10;;;;;;;3.72;2.50;;;;;;;15.82;100.00;100527.56;5035666;28;20100;-82
2023/07/31 07:40:40;;;;;;;3.30;2.72;;;;;;;15.78;100.00;100521.81;5051271;28;20044;-83
2023/07/31 07:43:06;;;;;;;3.75;2.25;;;;;;;15.72;100.00;100522.75;5043719;28;20477;-82
2023/07/31 07:45:31;;;;;;;5.18;2.30;;;;;;;15.83;100.00;100513.78;5046993;28;20049;-82
2023/07/31 07:47:59;;;;;;;2.42;2.20;;;;;;;15.83;100.00;100521.94;5043847;28;20021;-82
2023/07/31 07:50:25;;;;;;;4.00;2.20;;;;;;;15.91;100.00;100515.31;5050915;28;20079;-82
2023/07/31 07:52:50;;;;;;;2.50;2.22;;;;;;;15.95;100.00;100516.50;5046519;28;20033;-81
2023/07/31 07:55:16;;;;;;;2.92;1.77;;;;;;;15.94;100.00;100514.00;5044603;28;20036;-81
2023/07/31 07:57:41;;;;;;;3.28;2.30;;;;;;;15.96;100.00;100515.44;5036850;28;20021;-81
2023/07/31 08:00:07;;;;;;;2.70;2.08;;;;;;;15.93;100.00;100513.19;5043400;28;20033;-80
2023/07/31 08:02:32;;;;;;;2.38;2.17;;;;;;;15.88;100.00;100507.66;5033991;28;20483;-80
2023/07/31 08:04:58;;;;;;;2.35;2.10;;;;;;;15.95;100.00;100510.22;5050363;28;20028;-80
2023/07/31 08:07:24;;;;;;;3.10;1.92;;;;;;;15.98;100.00;100512.47;5041801;28;20045;-81
2023/07/31 08:09:51;;;;;;;2.30;2.10;;;;;;;16.01;100.00;100506.56;5039964;28;20033;-81
2023/07/31 08:12:16;;;;;;;2.35;2.00;;;;;;;15.98;100.00;100499.69;5036150;28;20029;-80
2023/07/31 08:14:41;;;;;;;2.08;1.90;;;;;;;16.05;100.00;100499.59;5040154;28;20021;-82
2023/07/31 08:17:10;;;;;;;1.85;1.75;;;;;;;16.07;100.00;100492.00;5044370;28;20522;-82
2023/07/31 08:19:38;;;;;;;2.03;1.90;;;;;;;16.13;100.00;100479.38;5042723;28;20025;-81
2023/07/31 08:22:03;;;;;;;2.83;1.92;;;;;;;16.08;100.00;100471.94;5045189;28;20388;-82
2023/07/31 08:24:29;;;;;;;1.95;1.85;;;;;;;16.06;100.00;100485.75;5054221;28;20013;-82
2023/07/31 08:26:54;;;;;;;3.65;2.10;;;;;;;15.96;100.00;100474.72;5036058;28;20385;-82
2023/07/31 08:29:19;;;;;;;2.10;1.90;;;;;;;16.02;100.00;100487.31;5049309;28;20577;-82
2023/07/31 08:31:45;;;;;;;2.63;2.10;;;;;;;15.99;100.00;100489.69;5045515;28;20384;-83
2023/07/31 08:34:10;;;;;;;2.42;2.22;;;;;;;16.01;100.00;100487.56;5049881;28;20045;-83
2023/07/31 08:36:36;;;;;;;2.20;2.00;;;;;;;16.12;100.00;100473.09;5042052;28;20440;-81
2023/07/31 08:39:01;;;;;;;2.28;2.08;;;;;;;16.19;100.00;100481.94;5044298;28;20036;-83
2023/07/31 08:41:30;;;;;;;2.33;2.10;;;;;;;16.30;100.00;100484.81;5037645;28;20033;-82
2023/07/31 08:43:55;;;;;;;2.47;2.15;;;;;;;16.32;100.00;100477.25;5048027;28;20120;-81
2023/07/31 08:46:20;;;;;;;2.38;2.17;;;;;;;16.23;100.00;100492.31;5030122;28;20499;-82
2023/07/31 08:48:47;;;;;;;2.35;2.00;;;;;;;16.35;100.00;100490.34;5038369;28;20041;-82
2023/07/31 08:51:14;;;;;;;2.60;1.98;;;;;;;16.26;100.00;100494.50;5041063;28;20366;-81
2023/07/31 08:53:40;;;;;;;2.33;2.03;;;;;;;16.25;100.00;100477.41;5043834;28;20036;-82
2023/07/31 08:56:05;;;;;;;2.33;2.17;;;;;;;16.17;100.00;100481.34;5044830;28;20018;-83
2023/07/31 08:58:31;;;;;;;3.20;2.15;;;;;;;16.17;100.00;100485.94;5020353;28;20020;-83
2023/07/31 09:00:57;;;;;;;2.63;2.25;;;;;;;16.19;100.00;100487.34;5043885;28;20027;-84
2023/07/31 09:03:23;;;;;;;2.95;1.90;;;;;;;16.36;100.00;100486.56;5039683;28;20021;-83
2023/07/31 09:05:48;;;;;;;2.30;2.10;;;;;;;16.46;100.00;100481.28;5044800;28;20123;-82
2023/07/31 09:08:15;;;;;;;1.83;1.73;;;;;;;16.49;100.00;100472.66;5016747;28;20508;-82
2023/07/31 09:10:45;;;;;;;2.50;2.00;;;;;;;16.43;100.00;100479.06;5037795;28;20035;-82
2023/07/31 09:13:11;;;;;;;2.28;2.08;;;;;;;16.56;100.00;100477.94;5043657;28;20076;-82
2023/07/31 09:15:37;;;;;;;2.03;1.80;;;;;;;16.53;100.00;100475.69;5035144;28;20040;-82
2023/07/31 09:18:03;;;;;;;1.98;1.88;;;;;;;16.51;100.00;100475.97;5038706;28;20045;-77
2023/07/31 09:20:29;;;;;;;1.90;1.80;;;;;;;16.59;100.00;100471.19;5033663;28;20043;-82
2023/07/31 09:22:55;;;;;;;1.98;1.77;;;;;;;16.56;100.00;100468.97;5040481;28;20082;-80
2023/07/31 09:25:43;;;;;;;2.10;1.90;;;;;;;16.62;100.00;100479.66;5030305;28;20029;-77
2023/07/31 09:28:09;;;;;;;2.30;1.90;;;;;;;16.63;100.00;100477.75;5038066;28;20033;-83
2023/07/31 09:30:48;;;;;;;2.08;1.88;;;;;;;16.70;100.00;100467.56;5035135;28;20028;-81
2023/07/31 09:33:13;;;;;;;1.77;1.67;;;;;;;16.66;100.00;100467.25;5045488;28;20033;-77
2023/07/31 09:35:40;;;;;;;2.30;1.75;;;;;;;16.63;100.00;100466.88;5044270;28;20154;-78
2023/07/31 09:38:07;;;;;;;1.75;1.65;;;;;;;16.66;100.00;100460.97;5042729;28;20028;-78
2023/07/31 09:40:34;;;;;;;1.83;1.73;;;;;;;16.76;100.00;100460.31;5039181;28;20524;-77
2023/07/31 09:43:01;;;;;;;2.03;1.80;;;;;;;16.86;100.00;100475.94;5043601;28;20043;-78
2023/07/31 09:45:26;;;;;;;2.10;1.90;;;;;;;16.82;100.00;100464.75;5044205;28;20025;-78
2023/07/31 09:47:52;;;;;;;2.35;2.15;;;;;;;16.82;100.00;100467.47;5039788;28;20167;-77
2023/07/31 09:50:19;;;;;;;2.30;2.10;;;;;;;16.54;100.00;100468.38;5031629;28;20087;-76
2023/07/31 09:52:44;;;;;;;2.35;2.15;;;;;;;16.68;100.00;100456.91;5031228;28;20315;-77
2023/07/31 09:55:10;;;;;;;2.08;1.88;;;;;;;16.69;100.00;100463.19;5039742;28;20041;-77
2023/07/31 09:57:47;;;;;;;2.20;1.88;;;;;;;16.59;100.00;100454.88;5040819;28;20021;-78
2023/07/31 10:00:14;;;;;;;2.70;1.95;;;;;;;16.62;100.00;100452.50;5040579;28;20484;-77
2023/07/31 10:02:39;;;;;;;2.70;2.10;;;;;;;16.52;100.00;100455.03;5045184;28;20034;-77
2023/07/31 10:05:05;;;;;;;2.40;2.20;;;;;;;16.60;100.00;100442.91;5065983;22;20083;-76
2023/07/31 10:07:31;;;;;;;2.20;2.00;;;;;;;16.44;100.00;100453.53;5053520;28;20075;-78
2023/07/31 10:09:58;;;;;;;2.90;2.28;;;;;;;16.56;100.00;100458.09;5015007;28;20025;-76
2023/07/31 10:12:25;;;;;;;2.90;2.58;;;;;;;16.34;100.00;100462.34;5045078;28;20123;-76
2023/07/31 10:14:51;;;;;;;2.95;2.13;;;;;;;16.51;100.00;100456.94;5047209;28;20071;-76
2023/07/31 10:17:18;;;;;;;2.65;2.45;;;;;;;16.34;100.00;100458.81;5029271;28;20436;-76
2023/07/31 10:19:43;;;;;;;3.22;2.60;;;;;;;16.25;100.00;100462.97;5049828;28;20465;-76
2023/07/31 10:22:09;;;;;;;3.38;2.50;;;;;;;16.32;100.00;100467.22;5036713;28;20040;-77
2023/07/31 10:24:34;;;;;;;3.00;2.70;;;;;;;16.33;100.00;100457.16;5049731;28;20137;-77
2023/07/31 10:27:00;;;;;;;2.75;2.50;;;;;;;16.31;100.00;100459.31;5014451;28;20107;-77
2023/07/31 10:29:25;;;;;;;2.97;2.67;;;;;;;16.44;100.00;100458.16;5049354;28;20056;-77
2023/07/31 10:31:51;;;;;;;2.85;2.65;;;;;;;16.46;100.00;100456.84;5028305;28;20033;-77
2023/07/31 10:34:18;;;;;;;4.18;3.10;;;;;;;16.34;100.00;100464.25;5027046;28;20219;-76
2023/07/31 10:36:43;;;;;;;3.45;3.10;;;;;;;16.24;100.00;100455.94;5013124;28;20029;-78
2023/07/31 10:39:39;;;;;;;3.88;3.03;;;;;;;16.30;100.00;100458.50;5045757;28;20033;-77
2023/07/31 10:42:13;;;;;;;4.35;3.15;;;;;;;16.31;100.00;100449.28;5040622;28;20052;-77
2023/07/31 10:44:45;;;;;;;4.00;3.08;;;;;;;16.43;100.00;100456.53;5049770;28;20116;-77
2023/07/31 10:47:10;;;;;;;4.18;3.30;;;;;;;16.54;100.00;100462.94;5039396;28;20112;-78
2023/07/31 10:49:35;;;;;;;4.60;3.72;;;;;;;16.58;100.00;100455.97;5008447;28;20342;-77
2023/07/31 10:52:03;;;;;;;3.83;3.38;;;;;;;16.64;100.00;100450.34;5024321;28;20131;-78
2023/07/31 10:54:29;;;;;;;7.25;3.85;;;;;;;16.74;100.00;100449.69;5026094;28;20037;-79
2023/07/31 10:56:54;;;;;;;4.95;3.88;;;;;;;16.71;100.00;100452.91;5050119;28;20024;-79
2023/07/31 10:59:20;;;;;;;5.18;4.00;;;;;;;16.74;100.00;100446.97;5034342;28;20104;-79
2023/07/31 11:01:58;;;;;;;4.90;3.92;;;;;;;16.76;100.00;100453.00;5013925;28;20590;-79
2023/07/31 11:04:24;;;;;;;4.35;3.92;;;;;;;16.83;100.00;100453.63;5042837;28;20036;-79
2023/07/31 11:07:00;;;;;;;5.25;4.53;;;;;;;16.83;100.00;100444.66;5045550;28;20174;-80
2023/07/31 11:09:32;;;;;;;5.80;4.53;;;;;;;16.78;100.00;100437.22;5045276;28;20379;-79
2023/07/31 11:11:58;;;;;;;5.97;4.20;;;;;;;16.88;100.00;100433.03;5021147;28;20022;-80
2023/07/31 11:14:24;;;;;;;6.25;4.60;;;;;;;17.18;100.00;100437.28;5044327;28;20033;-79